Time;durP1;ratioP1;P1;durP2;ratioP2;P2;SDS_P1;SDS_P2;PMS_P1;PMS_P2;Temp;Humidity;BMP_temperature;BMP_pressure;BME280_temperature;BME280_humidity;BME280_pressure;Samples;Min_cycle;Max_cycle;Signal;HPM_P1;HPM_P2
2022/06/23 00:09:45;;;;;;;4.75;2.70;;;20.80;99.90;;;;;;6620003;89;21080;-80
2022/06/23 00:19:46;;;;;;;6.28;2.72;;;20.70;99.90;;;;;;6625663;89;20183;-80
2022/06/23 00:29:48;;;;;;;5.68;2.80;;;20.60;99.90;;;;;;6626276;89;20208;-79
2022/06/23 00:39:59;;;;;;;4.05;2.90;;;20.70;99.90;;;;;;6625804;89;20284;-80
2022/06/23 00:50:19;;;;;;;7.20;2.70;;;20.70;99.90;;;;;;6610023;90;20198;-80
2022/06/23 01:10:27;;;;;;;4.47;2.78;;;20.20;99.90;;;;;;6741924;88;20196;-79
2022/06/23 01:20:43;;;;;;;3.67;2.65;;;20.30;99.90;;;;;;6711636;88;20699;-79
2022/06/23 01:31:10;;;;;;;5.47;2.90;;;20.20;99.90;;;;;;6694011;88;20224;-79
2022/06/23 01:41:19;;;;;;;4.25;2.70;;;20.20;99.90;;;;;;6695296;88;20687;-80
2022/06/23 01:51:20;;;;;;;4.82;2.87;;;20.10;99.90;;;;;;6712296;88;20866;-79
2022/06/23 02:01:48;;;;;;;4.05;2.90;;;20.00;99.90;;;;;;6715186;88;20257;-80
2022/06/23 02:11:51;;;;;;;5.40;3.03;;;20.00;99.90;;;;;;6714845;88;20985;-81
2022/06/23 02:22:16;;;;;;;5.87;2.83;;;20.00;99.90;;;;;;6713615;88;20217;-80
2022/06/23 02:32:23;;;;;;;5.57;3.17;;;20.00;99.90;;;;;;6711038;88;20245;-79
2022/06/23 02:42:24;;;;;;;5.45;3.50;;;20.40;99.90;;;;;;6714114;88;20193;-79
2022/06/23 02:53:15;;;;;;;6.40;3.60;;;20.10;99.90;;;;;;6716202;88;20222;-79
2022/06/23 03:03:31;;;;;;;6.82;3.58;;;19.90;99.90;;;;;;6707051;88;20276;-79
2022/06/23 03:13:55;;;;;;;6.55;3.92;;;20.00;99.90;;;;;;6717096;88;20575;-79
2022/06/23 03:24:00;;;;;;;5.93;3.73;;;19.80;99.90;;;;;;6715943;88;20229;-79
2022/06/23 03:34:17;;;;;;;7.15;4.00;;;19.90;99.90;;;;;;6711379;88;20197;-79
2022/06/23 03:44:27;;;;;;;8.85;4.15;;;19.80;99.90;;;;;;6716568;88;20639;-79
2022/06/23 03:54:43;;;;;;;9.15;4.70;;;19.90;99.90;;;;;;6716727;88;20224;-79
2022/06/23 04:05:05;;;;;;;7.47;4.30;;;19.90;99.90;;;;;;6716457;88;20229;-78
2022/06/23 04:15:27;;;;;;;7.30;4.78;;;19.90;99.90;;;;;;6717668;88;20277;-81
2022/06/23 04:25:39;;;;;;;11.15;4.65;;;19.90;99.90;;;;;;6713081;88;20278;-80
2022/06/23 04:35:40;;;;;;;9.13;4.18;;;20.20;99.90;;;;;;6717978;88;20174;-81
2022/06/23 04:45:47;;;;;;;9.82;4.30;;;20.20;99.90;;;;;;6720432;88;20214;-80
2022/06/23 04:56:03;;;;;;;9.10;3.97;;;20.30;99.90;;;;;;6719294;88;20205;-80
2022/06/23 05:06:18;;;;;;;7.60;3.78;;;20.50;99.90;;;;;;6718717;88;20221;-79
2022/06/23 05:16:25;;;;;;;6.60;3.85;;;20.70;99.90;;;;;;6718193;88;20215;-79
2022/06/23 05:26:37;;;;;;;7.65;3.85;;;20.90;99.90;;;;;;6719180;88;20189;-79
2022/06/23 05:37:01;;;;;;;7.90;3.65;;;21.00;99.90;;;;;;6722025;88;20203;-79
2022/06/23 05:47:02;;;;;;;7.85;3.65;;;21.20;99.90;;;;;;6724789;88;20684;-78
2022/06/23 05:57:12;;;;;;;8.57;3.50;;;21.50;99.90;;;;;;6726583;88;20214;-78
2022/06/23 06:07:17;;;;;;;12.15;4.03;;;21.80;99.90;;;;;;6719345;88;20194;-79
2022/06/23 06:17:23;;;;;;;7.72;3.58;;;22.10;99.90;;;;;;6717614;88;20786;-77
2022/06/23 06:27:24;;;;;;;9.30;3.60;;;22.40;99.90;;;;;;6723725;88;20581;-79
2022/06/23 06:37:30;;;;;;;9.13;3.78;;;22.90;99.90;;;;;;6715118;88;20195;-79
2022/06/23 06:47:35;;;;;;;8.35;4.00;;;23.20;99.90;;;;;;6713406;88;20664;-78
2022/06/23 06:57:46;;;;;;;8.35;4.10;;;23.40;99.90;;;;;;6712017;88;20225;-78
2022/06/23 07:08:22;;;;;;;7.43;4.00;;;23.90;99.90;;;;;;6718534;77;20346;-80
2022/06/23 07:19:14;;;;;;;11.38;4.28;;;24.00;99.90;;;;;;6710431;88;20282;-80
2022/06/23 07:29:32;;;;;;;10.82;4.00;;;24.50;99.90;;;;;;6703169;88;20190;-79
2022/06/23 07:39:38;;;;;;;7.40;3.67;;;25.00;99.90;;;;;;6704910;88;20186;-80
2022/06/23 07:49:39;;;;;;;7.07;3.80;;;25.40;99.90;;;;;;6709310;88;20230;-79
2022/06/23 07:59:58;;;;;;;9.03;3.90;;;25.70;99.90;;;;;;6711390;88;20509;-79
2022/06/23 08:10:05;;;;;;;7.80;3.47;;;25.80;99.90;;;;;;6716125;88;20493;-79
2022/06/23 08:20:10;;;;;;;8.43;3.83;;;26.60;99.90;;;;;;6710176;88;20183;-79
2022/06/23 08:30:18;;;;;;;5.20;3.70;;;27.00;99.90;;;;;;6709066;88;20238;-78
2022/06/23 08:40:33;;;;;;;7.72;3.78;;;26.70;99.90;;;;;;6706794;88;20225;-79
2022/06/23 08:50:43;;;;;;;8.02;3.80;;;27.70;98.70;;;;;;6710192;88;20194;-78
2022/06/23 09:01:02;;;;;;;11.63;3.83;;;27.40;97.60;;;;;;6710996;88;20202;-78
2022/06/23 09:11:20;;;;;;;9.65;3.58;;;27.40;96.00;;;;;;6710032;88;20666;-78
2022/06/23 09:21:30;;;;;;;7.93;3.35;;;27.60;96.60;;;;;;6713095;88;20181;-79
2022/06/23 09:31:58;;;;;;;7.85;3.90;;;28.20;95.10;;;;;;6720364;88;20214;-80
2022/06/23 09:42:17;;;;;;;9.10;3.72;;;28.50;93.90;;;;;;6705502;88;20651;-79
2022/06/23 09:52:56;;;;;;;9.95;4.15;;;28.60;94.60;;;;;;6714329;88;20313;-80
2022/06/23 10:03:13;;;;;;;6.30;4.15;;;29.00;93.80;;;;;;6724304;88;20179;-80
2022/06/23 10:13:41;;;;;;;9.55;4.20;;;29.30;94.00;;;;;;6712419;88;20295;-80
2022/06/23 10:24:04;;;;;;;6.45;3.78;;;30.10;92.80;;;;;;6708172;88;20310;-79
2022/06/23 10:34:11;;;;;;;;;;;29.70;92.10;;;;;;6710832;88;20194;-81
2022/06/23 10:44:34;;;;;;;7.47;3.75;;;30.20;92.10;;;;;;6715064;88;20066;-80
2022/06/23 10:55:01;;;;;;;7.12;3.53;;;30.20;91.50;;;;;;6707109;88;20264;-81
2022/06/23 11:05:29;;;;;;;9.10;3.70;;;31.00;91.70;;;;;;6715685;88;20245;-81
2022/06/23 11:15:44;;;;;;;6.57;3.80;;;31.30;90.90;;;;;;6720041;88;20198;-80
2022/06/23 11:25:50;;;;;;;7.20;3.40;;;31.10;90.90;;;;;;6711470;88;20262;-81
2022/06/23 11:36:10;;;;;;;8.73;3.35;;;32.30;90.80;;;;;;6714845;88;20244;-81
2022/06/23 11:46:33;;;;;;;7.35;3.70;;;33.00;86.50;;;;;;6719163;88;20217;-80
2022/06/23 11:57:05;;;;;;;10.05;3.80;;;33.30;87.70;;;;;;6718807;88;20685;-79
2022/06/23 12:07:32;;;;;;;7.80;3.40;;;32.60;85.40;;;;;;6714170;88;20612;-80
2022/06/23 12:17:47;;;;;;;6.60;3.60;;;33.30;83.90;;;;;;6720960;88;20203;-81
2022/06/23 12:28:11;;;;;;;8.98;3.42;;;34.20;83.40;;;;;;6712722;88;20186;-80
2022/06/23 12:38:26;;;;;;;7.10;3.62;;;33.70;81.50;;;;;;6712612;88;20253;-80
2022/06/23 12:48:40;;;;;;;8.88;3.20;;;32.50;83.60;;;;;;6713523;88;20271;-80
2022/06/23 12:58:52;;;;;;;9.48;3.40;;;33.30;78.70;;;;;;6715719;88;20231;-81
2022/06/23 13:09:33;;;;;;;7.82;3.03;;;33.50;78.50;;;;;;6687799;77;20855;-79
2022/06/23 13:19:47;;;;;;;10.10;3.63;;;32.80;75.80;;;;;;6724068;88;20195;-79
2022/06/23 13:29:55;;;;;;;12.20;4.00;;;33.30;78.80;;;;;;6705130;88;20324;-79
2022/06/23 13:40:13;;;;;;;9.20;4.05;;;32.90;81.30;;;;;;6722613;88;20248;-79
2022/06/23 13:50:37;;;;;;;6.22;3.95;;;34.30;78.60;;;;;;6705563;88;20185;-79
2022/06/23 14:00:46;;;;;;;7.20;3.95;;;33.90;80.00;;;;;;6720783;88;20203;-79
2022/06/23 14:10:58;;;;;;;8.05;3.97;;;35.00;78.00;;;;;;6729444;88;20197;-80
2022/06/23 14:21:16;;;;;;;9.25;4.28;;;35.50;74.80;;;;;;6700453;88;20311;-79
2022/06/23 14:31:19;;;;;;;8.20;4.20;;;34.60;75.80;;;;;;6700234;88;20328;-78
2022/06/23 14:41:52;;;;;;;7.15;4.03;;;34.50;74.90;;;;;;6709117;88;20197;-80
2022/06/23 14:52:09;;;;;;;8.27;3.80;;;33.90;76.50;;;;;;6717733;88;20210;-80
2022/06/23 15:02:40;;;;;;;8.23;3.33;;;34.00;76.90;;;;;;6713779;88;20659;-80
2022/06/23 15:12:51;;;;;;;7.05;3.25;;;33.90;75.00;;;;;;6711949;88;20227;-80
2022/06/23 15:23:11;;;;;;;7.60;3.50;;;34.40;75.50;;;;;;6720192;88;20226;-79
2022/06/23 15:33:27;;;;;;;6.75;3.50;;;34.20;75.40;;;;;;6703190;88;20693;-79
2022/06/23 15:43:49;;;;;;;7.95;3.70;;;35.00;74.00;;;;;;6706818;88;20218;-79
2022/06/23 15:54:04;;;;;;;7.37;3.67;;;34.60;73.40;;;;;;6709692;88;20193;-80
2022/06/23 16:04:19;;;;;;;10.77;3.30;;;34.60;72.90;;;;;;6714867;88;20515;-78
2022/06/23 16:14:49;;;;;;;9.30;3.50;;;34.60;73.00;;;;;;6698120;88;20223;-79
2022/06/23 16:25:02;;;;;;;7.85;2.97;;;36.00;72.10;;;;;;6722840;88;20208;-79
2022/06/23 16:35:09;;;;;;;6.78;3.30;;;34.20;72.00;;;;;;6719595;88;20239;-80
2022/06/23 16:45:20;;;;;;;8.50;3.08;;;33.50;70.40;;;;;;6714583;88;20185;-80
2022/06/23 16:55:38;;;;;;;10.57;3.03;;;33.00;72.10;;;;;;6716281;88;20285;-79
2022/06/23 17:05:43;;;;;;;8.27;3.60;;;32.50;73.30;;;;;;6712784;88;20197;-80
2022/06/23 17:15:49;;;;;;;9.18;3.90;;;32.00;74.40;;;;;;6720268;88;20719;-79
2022/06/23 17:25:55;;;;;;;7.97;4.25;;;32.90;74.60;;;;;;6717888;88;20228;-79
2022/06/23 17:36:07;;;;;;;7.87;4.25;;;33.40;74.80;;;;;;6711794;88;20173;-80
2022/06/23 17:46:18;;;;;;;7.47;3.60;;;33.00;74.90;;;;;;6724811;88;20210;-78
2022/06/23 17:56:20;;;;;;;9.47;4.50;;;33.00;74.50;;;;;;6717813;88;20198;-79
2022/06/23 18:06:29;;;;;;;9.52;4.68;;;33.30;74.50;;;;;;6709383;88;20718;-80
2022/06/23 18:16:59;;;;;;;8.18;4.53;;;32.10;76.10;;;;;;6710105;88;20213;-80
2022/06/23 18:27:23;;;;;;;8.65;4.32;;;32.80;76.10;;;;;;6713906;88;20304;-77
2022/06/23 18:37:47;;;;;;;7.70;4.12;;;31.80;77.90;;;;;;6719910;88;20174;-78
2022/06/23 18:48:01;;;;;;;10.02;4.30;;;30.90;79.40;;;;;;6721644;88;20213;-77
2022/06/23 18:58:36;;;;;;;8.07;4.15;;;30.50;81.50;;;;;;6716956;88;20166;-77
2022/06/23 19:08:37;;;;;;;7.40;4.30;;;30.10;83.40;;;;;;6700778;77;20259;-79
2022/06/23 19:19:02;;;;;;;8.18;4.20;;;29.70;84.80;;;;;;6728477;88;20691;-79
2022/06/23 19:29:30;;;;;;;8.27;4.57;;;29.20;86.10;;;;;;6726793;88;20187;-81
2022/06/23 19:40:09;;;;;;;8.50;4.40;;;29.00;88.20;;;;;;6725381;88;20183;-78
2022/06/23 19:50:15;;;;;;;9.45;5.15;;;28.70;89.60;;;;;;6714445;88;20746;-80
2022/06/23 20:00:36;;;;;;;11.45;5.80;;;28.50;91.10;;;;;;6729310;88;20308;-80
2022/06/23 20:11:14;;;;;;;8.93;5.57;;;28.20;92.60;;;;;;6722426;88;20183;-79
2022/06/23 20:21:30;;;;;;;7.80;5.53;;;27.90;94.70;;;;;;6720764;88;20229;-79
2022/06/23 20:31:40;;;;;;;9.20;4.93;;;27.50;96.70;;;;;;6723670;88;20233;-79
2022/06/23 20:42:06;;;;;;;9.45;4.80;;;27.20;99.70;;;;;;6723537;88;20625;-79
2022/06/23 20:52:34;;;;;;;7.20;4.12;;;27.00;99.90;;;;;;6720294;88;20267;-78
2022/06/23 21:02:52;;;;;;;7.03;3.95;;;26.90;99.90;;;;;;6724333;88;20217;-79
2022/06/23 21:12:59;;;;;;;9.57;3.90;;;26.40;99.90;;;;;;6724127;88;20211;-79
2022/06/23 21:23:32;;;;;;;9.80;4.25;;;26.10;99.90;;;;;;6725055;88;20203;-79
2022/06/23 21:33:48;;;;;;;8.93;4.13;;;26.00;99.90;;;;;;6718947;88;21227;-79
2022/06/23 21:44:19;;;;;;;12.05;4.40;;;26.20;99.90;;;;;;6725231;88;20180;-80
2022/06/23 21:54:38;;;;;;;9.65;4.32;;;26.00;99.90;;;;;;6711470;88;20187;-79
2022/06/23 22:04:48;;;;;;;12.32;5.45;;;25.20;99.90;;;;;;6721673;88;20218;-78
2022/06/23 22:14:58;;;;;;;11.65;6.07;;;22.90;99.90;;;;;;6716661;88;20181;-79
2022/06/23 22:35:43;;;;;;;10.50;5.95;;;23.00;99.90;;;;;;6718761;88;20210;-79
2022/06/23 22:45:57;;;;;;;15.25;6.28;;;22.50;99.90;;;;;;6719459;88;20292;-78
2022/06/23 22:56:03;;;;;;;11.27;6.30;;;22.70;99.90;;;;;;6721374;88;20229;-78
2022/06/23 23:06:24;;;;;;;9.20;5.15;;;22.10;99.90;;;;;;6729954;88;20616;-79
2022/06/23 23:16:33;;;;;;;13.27;4.65;;;22.10;99.90;;;;;;6734088;88;20240;-78
2022/06/23 23:26:35;;;;;;;8.45;4.12;;;22.00;99.90;;;;;;6728770;88;20674;-78
2022/06/23 23:36:36;;;;;;;10.45;4.68;;;22.10;99.90;;;;;;6730723;88;20175;-82
2022/06/23 23:46:44;;;;;;;11.12;5.40;;;22.00;99.90;;;;;;6735304;88;20159;-79
2022/06/23 23:56:46;;;;;;;9.00;3.97;;;22.20;99.90;;;;;;6739770;88;20252;-79
